Huvudsida
METAR-TAF:

METAR-TAF

Flygplatser :

Palangas internationella flygplats

Palanga, Litauen

latitud: 55-55-12N, longitud: 021-03E, höjd: 10 m

Aktuellt väderrapport

Denna rapport gjordes för 16 minuter sedan, klockan 13:50 UTC
Vind 9 kt från väst, varierande mellan syd/sydost och nordväst
Temperatur 18°C
Fuktighet 73%
Tryck 1015 hPa
Sikt 10 km eller mer
Spridda moln på en höjd av 2400 ft

METAR: EYPA 191350Z 27009KT 160V310 9999 SCT024 18/13 Q1015

Tid: 17:06 (14:06 UTC)

Väderprognos

Denna rapport gjordes för 3 timmar och 0 minuter sedan, klockan 11:06 UTC
Prognos gäller från 19 kl. 12 UTC till 20 kl. 12 UTC
Vind 18 kt från väst/sydväst i byarna ända upp till 30 kt
Sikt 10 km eller mer
Spridda moln på en höjd av 3000 ft
Temporärt
från 19 kl. 12 UTC till 19 kl. 15 UTC
Brutna moln på en höjd av 1200 ft, Cumulonimbus.
Blir
från 19 kl. 21 UTC till 19 kl. 23 UTC
Vind 12 kt från nordväst

TAF: EYPA 191106Z 1912/2012 25018G30KT 9999 SCT030 TEMPO 1912/1915 BKN012CB BECMG 1921/1923 31012KT

Aktuella väderrapporter och prognoser från 4000 flygplatser (METAR- och TAF-rapporter).

De tillgängliga stationerna syns som gula och röda prickar på kartan.

För musen över prickarna för att se namnen på stationerna.

Klicka sedan för att få väderrapporter och prognoser.

För att ändra kartan: Klicka på de gröna knapparna med ett svart kors på för att zooma in; den gröna knappen med ett streck på för att zooma ut; eller på de gröna pilarna för angränsande kartor.


METAR-TAF: